x

South Moresby (46147) Wave Buoy

6:00pm - Mon 28th Jul 2014 All times are PDT. -7 hours from GMT.

  • Sig Wave height 5.9ft
  • Peak Period 6s
  • Wind
    22mph, 29mph gusts
  • Sea Temp 56°f
  • Air Temp 60°f
  • Sea Pressure 1015.7mb
  • South Moresby
  • South Moresby

More Historic Weather Station data

Upgrade to MSW Pro to gain access to the past 30 days of data for over 8000 Wavebouys and Weather Stations around the globe.

Join Pro

Comparision Forecast

View Surf forecast
   
Mon 07/28 6:00pm 6ft 6s 22 29 mph 1015.7mb 56f 60f
5:00pm 6ft 6s 22 27 mph 1016mb 55f 60f
4:00pm 6.5ft 6s 22 27 mph 1016.5mb 55f 59f
3:00pm 6ft 5s 22 29 mph 1016.8mb 55f 60f
2:00pm 5.5ft 6s 22 27 mph 1017mb 55f 60f
1:00pm 4.5ft 5s 22 27 mph 1017.3mb 55f 60f
12:00pm 4.5ft 5s 22 27 mph 1017.7mb 54f 60f
11:00am 4.5ft 5s 20 22 mph 1018mb 54f 60f
10:00am  -   -  18
mph
1017.8mb - 59f
9:00am 3.5ft 8s 20 25 mph 1017.9mb 59f 60f
8:00am 3.5ft 8s 20 25 mph 1018.4mb 59f 60f
7:00am 3.5ft 8s 16 18 mph 1018.6mb 59f 60f
6:00am 3.5ft 8s 13 16 mph 1019.1mb 59f 60f
5:00am 3.5ft 7s 11 13 mph 1019.3mb 59f 60f
4:00am 3.5ft 8s 11 13 mph 1019.5mb 59f 60f
3:00am 3.5ft 8s 9 13 mph 1019.6mb 59f 60f
2:00am 3.5ft 8s 9 13 mph 1019.8mb 60f 60f
1:00am 3.5ft 8s 11
mph
1020mb 59f 60f
12:00am 3.5ft 9s 11
mph
1020.4mb 60f 60f
Sun 07/27 11:00pm 3.5ft 8s 9 11 mph 1020.5mb 60f 60f
10:00pm 4ft 9s 9 11 mph 1020.8mb 59f 60f
9:00pm 4.5ft 8s 9 11 mph 1020.9mb 56f 60f
8:00pm 4.5ft 8s 9 11 mph 1021mb 57f 59f
7:00pm 4.5ft 8s 11 13 mph 1021.1mb 57f 59f
6:00pm 4.5ft 8s 9 11 mph 1021.5mb 57f 59f
5:00pm 4.5ft 8s 9 11 mph 1021.5mb 57f 59f
4:00pm 4.5ft 8s 11 13 mph 1021.6mb 56f 59f
3:00pm 4.5ft 8s 9 13 mph 1021.4mb 56f 59f
2:00pm 4.5ft 8s 9 11 mph 1021.3mb 55f 58f
1:00pm 4ft 8s 9 13 mph 1021.2mb 54f 58f
12:00pm 4.5ft 8s 11 13 mph 1021mb 55f 58f
11:00am 4.5ft 7s 9 11 mph 1020.8mb 56f 58f
10:00am 4.5ft 8s 7 9 mph 1020.5mb 54f 58f
9:00am 4.5ft 8s 9 11 mph 1020.6mb 54f 58f
8:00am 4.5ft 7s 9
mph
1020.2mb 55f 58f
7:00am 4.5ft 8s 9
mph
1019.9mb 55f 59f
6:00am 5ft 8s 9 11 mph 1019.7mb 55f 59f
5:00am 4.5ft 8s 11 13 mph 1019.5mb 55f 59f
4:00am 4.5ft 8s 13 18 mph 1019.3mb 55f 58f
3:00am 5ft 5s 13
mph
1019.3mb 55f 59f
2:00am 5ft 5s 13 16 mph 1019.4mb 57f 59f
1:00am 5ft 5s 11 13 mph 1019.6mb 58f 59f
12:00am 5ft 6s 11 13 mph 1019.5mb 58f 59f
Sat 07/26 11:00pm 4.5ft 5s 13
mph
1019.4mb 58f 59f
10:00pm 4.5ft 6s 13
mph
1019.1mb 57f 59f
9:00pm 4.5ft 7s 13 18 mph 1018.8mb 57f 59f
8:00pm 5ft 5s 16 20 mph 1018.6mb 58f 59f
7:00pm 5ft 5s 18 22 mph 1018.4mb 58f 59f
6:00pm 5ft 5s 16 20 mph 1018.4mb 58f 59f
5:00pm 5ft 5s 13 18 mph 1018.5mb 59f 58f
4:00pm 5.5ft 5s 20 22 mph 1018.1mb 59f 59f
3:00pm 5.5ft 8s 16 20 mph 1018mb 59f 60f
2:00pm 5.5ft 8s 16 18 mph 1017.5mb 58f 60f
1:00pm 5ft 5s 13 16 mph 1017.3mb 59f 59f
12:00pm 5ft 5s 13 16 mph 1017mb 58f 59f
11:00am 5ft 8s 18 22 mph 1017mb 58f 57f
10:00am 5ft 7s 18 20 mph 1016.6mb 54f 58f
9:00am 4.5ft 8s 20 25 mph 1016.6mb 56f 58f
8:00am 5ft 8s 20 22 mph 1016.3mb 57f 59f
7:00am 5ft 8s 18 20 mph 1016.1mb 59f 58f
6:00am 5ft 8s 16 20 mph 1016mb 59f 57f
5:00am 5ft 8s 16 18 mph 1016mb 59f 58f
4:00am 5ft 7s 13 18 mph 1016mb 59f 58f
3:00am 5ft 8s 13 16 mph 1016mb 59f 58f
2:00am 5ft 8s 16 18 mph 1016mb 59f 59f
1:00am 4.5ft 8s 13 16 mph 1016.2mb 59f 59f
12:00am 4.5ft 8s 16 18 mph 1016.3mb 59f 59f
Fri 07/25 11:00pm 4ft 8s 13 18 mph 1016.5mb 59f 59f
10:00pm 3.5ft 8s 16 18 mph 1016.6mb 59f 59f
9:00pm 3.5ft 8s 13 16 mph 1016.7mb 59f 59f
8:00pm 4ft 8s 13 18 mph 1016.9mb 58f 58f
7:00pm 4ft 8s 11 13 mph 1017.2mb 57f 59f
6:00pm 3.5ft 7s 11 16 mph 1017.3mb 58f 58f
5:00pm 4ft 7s 9 11 mph 1017.3mb 58f 58f
4:00pm 4.5ft 7s 11 13 mph 1017.3mb 58f 59f
3:00pm 4.5ft 7s 11 13 mph 1017.3mb 57f 59f
2:00pm 4.5ft 7s 11 13 mph 1017.3mb 57f 59f
1:00pm 4.5ft 7s 13 16 mph 1017.2mb 58f 59f
12:00pm 4.5ft 6s 13 18 mph 1017.1mb 57f 58f
11:00am 4.5ft 7s 13 18 mph 1017.1mb 57f 57f
10:00am 4ft 9s 16 20 mph 1017.2mb 56f 57f
9:00am 3.5ft 7s 16 18 mph 1017.3mb 55f 58f
8:00am 3.5ft 7s 13 16 mph 1017.5mb 55f 58f
7:00am 4.5ft 7s 13
mph
1017.6mb 55f 58f
6:00am 4ft 6s 11 13 mph 1017.8mb 54f 57f
5:00am 4.5ft 6s 11 13 mph 1017.9mb 55f 57f
4:00am 4ft 6s 7 9 mph 1018.1mb 56f 57f
3:00am 3.5ft 6s 7
mph
1018.3mb 56f 57f